Time;durP1;ratioP1;P1;durP2;ratioP2;P2;SDS_P1;SDS_P2;PMS_P1;PMS_P2;Temp;Humidity;BMP_temperature;BMP_pressure;BME280_temperature;BME280_humidity;BME280_pressure;Samples;Min_cycle;Max_cycle;Signal;HPM_P1;HPM_P2
2021/11/24 00:02:20;;;;;;;27.98;11.77;;;;;;;2.12;100.00;101469.31;5028765;28;20037;-75
2021/11/24 00:04:46;;;;;;;25.80;12.43;;;;;;;2.06;100.00;101463.81;5024797;28;20030;-75
2021/11/24 00:07:11;;;;;;;27.55;12.60;;;;;;;2.06;100.00;101458.34;5035251;28;20037;-75
2021/11/24 00:09:37;;;;;;;24.73;12.90;;;;;;;2.07;100.00;101454.56;5035792;28;20056;-75
2021/11/24 00:12:03;;;;;;;26.90;12.40;;;;;;;2.01;100.00;101450.78;5032895;28;20056;-75
2021/11/24 00:14:30;;;;;;;27.92;12.18;;;;;;;2.00;100.00;101449.91;5026772;28;20444;-75
2021/11/24 00:16:55;;;;;;;21.60;12.30;;;;;;;1.99;100.00;101442.75;5033211;28;20028;-75
2021/11/24 00:19:21;;;;;;;27.70;13.07;;;;;;;1.99;100.00;101441.94;5032920;28;20036;-75
2021/11/24 00:21:46;;;;;;;28.65;12.95;;;;;;;1.96;100.00;101437.72;5020536;28;20387;-75
2021/11/24 00:24:12;;;;;;;28.55;13.63;;;;;;;1.97;100.00;101435.81;5035401;28;21092;-75
2021/11/24 00:26:37;;;;;;;29.25;13.98;;;;;;;1.98;100.00;101432.88;5034072;28;20040;-75
2021/11/24 00:29:02;;;;;;;25.85;13.05;;;;;;;1.96;100.00;101439.63;5034755;28;20099;-75
2021/11/24 00:31:28;;;;;;;27.98;13.88;;;;;;;1.95;100.00;101432.44;5045468;28;20033;-75
2021/11/24 00:33:54;;;;;;;28.73;13.35;;;;;;;1.94;100.00;101425.28;5031079;28;20030;-74
2021/11/24 00:36:19;;;;;;;29.45;13.70;;;;;;;1.93;100.00;101427.19;5033232;28;20045;-75
2021/11/24 00:38:45;;;;;;;28.02;13.80;;;;;;;1.90;100.00;101419.41;5018931;28;20083;-75
2021/11/24 00:41:10;;;;;;;29.25;13.80;;;;;;;1.88;100.00;101416.03;5032234;28;20060;-75
2021/11/24 00:43:36;;;;;;;27.08;14.88;;;;;;;1.87;100.00;101408.88;5033669;28;20407;-75
2021/11/24 00:46:02;;;;;;;34.00;16.02;;;;;;;1.86;100.00;101411.81;5035171;28;20053;-75
2021/11/24 00:48:27;;;;;;;29.60;13.93;;;;;;;1.82;100.00;101413.31;5030727;28;20030;-75
2021/11/24 00:50:53;;;;;;;30.25;15.30;;;;;;;1.81;100.00;101417.09;5035707;28;20052;-75
2021/11/24 00:53:18;;;;;;;30.30;14.30;;;;;;;1.75;100.00;101413.31;5033947;28;20033;-75
2021/11/24 00:55:44;;;;;;;32.15;15.77;;;;;;;1.73;100.00;101408.06;5029712;28;20505;-75
2021/11/24 00:58:09;;;;;;;29.73;15.63;;;;;;;1.76;100.00;101396.69;5031861;28;20030;-75
2021/11/24 01:00:35;;;;;;;34.58;16.38;;;;;;;1.76;100.00;101406.81;5033485;28;20025;-75
2021/11/24 01:03:00;;;;;;;32.65;15.95;;;;;;;1.72;100.00;101397.31;5031765;28;20029;-74
2021/11/24 01:05:26;;;;;;;28.23;16.02;;;;;;;1.71;100.00;101401.13;5022866;28;20032;-75
2021/11/24 01:07:51;;;;;;;32.10;16.67;;;;;;;1.74;100.00;101397.94;5033813;28;20048;-74
2021/11/24 01:10:17;;;;;;;32.10;15.98;;;;;;;1.70;100.00;101393.94;5030576;28;20092;-74
2021/11/24 01:12:43;;;;;;;31.33;15.57;;;;;;;1.71;100.00;101395.63;5035519;28;20036;-74
2021/11/24 01:15:09;;;;;;;32.75;16.58;;;;;;;1.71;100.00;101390.16;5022784;28;20030;-75
2021/11/24 01:17:34;;;;;;;36.03;17.77;;;;;;;1.72;100.00;101391.84;5032670;28;20030;-75
2021/11/24 01:20:00;;;;;;;34.88;17.23;;;;;;;1.62;100.00;101384.06;5016819;28;20029;-75
2021/11/24 01:22:25;;;;;;;33.75;15.88;;;;;;;1.66;100.00;101387.22;5043961;28;20036;-75
2021/11/24 01:24:50;;;;;;;26.42;14.48;;;;;;;1.64;100.00;101390.16;5017238;28;20084;-75
2021/11/24 01:27:16;;;;;;;25.73;14.27;;;;;;;1.60;100.00;101388.91;5031485;28;20045;-75
2021/11/24 01:29:41;;;;;;;29.58;15.70;;;;;;;1.58;100.00;101380.06;5032404;28;20029;-75
2021/11/24 01:32:07;;;;;;;31.77;17.15;;;;;;;1.56;100.00;101383.03;5033078;28;20033;-75
2021/11/24 01:34:32;;;;;;;29.00;15.70;;;;;;;1.52;100.00;101380.91;5017872;28;20492;-75
2021/11/24 01:36:58;;;;;;;31.88;16.10;;;;;;;1.45;100.00;101378.22;5017146;28;20022;-75
2021/11/24 01:39:23;;;;;;;28.75;15.77;;;;;;;1.44;100.00;101373.78;5033925;28;20067;-75
2021/11/24 01:41:49;;;;;;;39.47;18.35;;;;;;;1.48;100.00;101372.31;5033126;28;20499;-75
2021/11/24 01:44:22;;;;;;;40.55;19.55;;;;;;;1.42;100.00;101362.22;5032508;28;20041;-75
2021/11/24 01:46:52;;;;;;;39.85;18.40;;;;;;;1.43;100.00;101354.84;5035965;28;20028;-75
2021/11/24 01:49:17;;;;;;;38.92;17.92;;;;;;;1.42;100.00;101345.78;5023426;28;20036;-74
2021/11/24 01:51:43;;;;;;;45.60;20.75;;;;;;;1.43;100.00;101344.72;5035902;28;20030;-75
2021/11/24 01:54:08;;;;;;;36.08;19.88;;;;;;;1.44;100.00;101346.41;5036324;28;20033;-75
2021/11/24 01:56:34;;;;;;;39.95;20.73;;;;;;;1.44;100.00;101354.59;5032877;28;20548;-76
2021/11/24 01:58:59;;;;;;;42.20;19.25;;;;;;;1.38;100.00;101352.72;5025341;28;20030;-76
2021/11/24 02:01:25;;;;;;;38.13;20.25;;;;;;;1.31;100.00;101343.69;5002904;28;20022;-76
2021/11/24 02:03:50;;;;;;;43.72;21.00;;;;;;;1.35;100.00;101342.22;5021074;28;20025;-75
2021/11/24 02:06:16;;;;;;;37.88;19.15;;;;;;;1.31;100.00;101338.22;5032250;28;20036;-75
2021/11/24 02:08:41;;;;;;;41.97;20.08;;;;;;;1.31;100.00;101340.97;5029275;28;20033;-75
2021/11/24 02:11:07;;;;;;;47.45;21.30;;;;;;;1.27;100.00;101340.53;4998267;28;20446;-75
2021/11/24 02:13:32;;;;;;;36.15;19.20;;;;;;;1.28;100.00;101336.75;5014366;28;20500;-75
2021/11/24 02:15:57;;;;;;;34.88;18.75;;;;;;;1.28;100.00;101338.63;4999775;28;20045;-75
2021/11/24 02:18:23;;;;;;;39.22;21.00;;;;;;;1.29;100.00;101329.38;5022128;28;20041;-75
2021/11/24 02:20:48;;;;;;;40.55;20.50;;;;;;;1.29;100.00;101332.94;5031575;28;20500;-75
2021/11/24 02:23:14;;;;;;;40.13;21.02;;;;;;;1.30;100.00;101325.56;5035010;28;20501;-75
2021/11/24 02:25:40;;;;;;;39.45;20.15;;;;;;;1.31;100.00;101330.00;5030431;28;20456;-75
2021/11/24 02:28:06;;;;;;;32.80;17.58;;;;;;;1.32;100.00;101323.47;5033665;28;20025;-76
2021/11/24 02:30:31;;;;;;;36.13;19.95;;;;;;;1.30;100.00;101320.09;5032845;28;20034;-75
2021/11/24 02:32:57;;;;;;;32.42;18.27;;;;;;;1.30;100.00;101317.38;5031292;28;20034;-76
2021/11/24 02:35:23;;;;;;;36.15;20.63;;;;;;;1.27;100.00;101313.16;5032204;28;20474;-75
2021/11/24 02:37:48;;;;;;;38.25;20.83;;;;;;;1.23;100.00;101306.44;5033238;28;20401;-75
2021/11/24 02:40:14;;;;;;;44.72;22.88;;;;;;;1.21;100.00;101308.53;5014415;28;20032;-75
2021/11/24 02:42:40;;;;;;;44.40;21.95;;;;;;;1.20;100.00;101300.53;5034747;28;20048;-75
2021/11/24 02:45:06;;;;;;;35.35;21.50;;;;;;;1.21;100.00;101297.59;5031384;28;20025;-75
2021/11/24 02:47:32;;;;;;;38.50;20.73;;;;;;;1.22;100.00;101295.69;5033301;28;20036;-75
2021/11/24 02:50:01;;;;;;;41.70;21.63;;;;;;;1.20;100.00;101295.94;5033522;28;20030;-76
2021/11/24 02:52:27;;;;;;;41.13;20.90;;;;;;;1.20;100.00;101295.06;5034233;28;20474;-76
2021/11/24 02:54:54;;;;;;;35.38;19.45;;;;;;;1.14;100.00;101290.44;5032604;28;20033;-75
2021/11/24 02:57:20;;;;;;;38.50;20.08;;;;;;;1.13;100.00;101294.25;5035646;28;20044;-75
2021/11/24 02:59:45;;;;;;;41.05;21.25;;;;;;;1.08;100.00;101282.03;5023894;28;20022;-75
2021/11/24 03:02:11;;;;;;;33.70;19.38;;;;;;;1.11;100.00;101283.50;5032480;28;20026;-76
2021/11/24 03:04:37;;;;;;;41.92;22.40;;;;;;;1.10;100.00;101279.09;5036806;28;20474;-75
2021/11/24 03:07:03;;;;;;;37.17;20.98;;;;;;;1.07;100.00;101277.63;5036010;28;20079;-76
2021/11/24 03:09:29;;;;;;;33.05;18.95;;;;;;;1.03;100.00;101273.66;5032710;28;20477;-75
2021/11/24 03:11:55;;;;;;;33.35;18.85;;;;;;;1.10;100.00;101268.97;5016798;28;20057;-76
2021/11/24 03:14:21;;;;;;;33.65;17.77;;;;;;;1.05;100.00;101262.47;5027614;28;20048;-76
2021/11/24 03:16:47;;;;;;;31.63;18.30;;;;;;;1.07;100.00;101257.63;4998429;28;20025;-75
2021/11/24 03:19:13;;;;;;;33.38;18.75;;;;;;;1.07;100.00;101263.09;5018747;28;20394;-76
2021/11/24 03:21:38;;;;;;;32.13;17.23;;;;;;;1.08;100.00;101257.41;5036123;28;20017;-76
2021/11/24 03:24:04;;;;;;;31.80;17.05;;;;;;;1.11;100.00;101257.00;4999144;28;20398;-76
2021/11/24 03:26:30;;;;;;;29.40;17.30;;;;;;;1.07;100.00;101258.47;5018954;28;20029;-75
2021/11/24 03:28:55;;;;;;;30.25;16.63;;;;;;;1.07;100.00;101258.47;5039240;28;20553;-75
2021/11/24 03:31:21;;;;;;;30.48;16.85;;;;;;;1.07;100.00;101253.00;5016867;28;20083;-76
2021/11/24 03:33:46;;;;;;;34.58;18.15;;;;;;;1.05;100.00;101249.63;5036447;28;20583;-75
2021/11/24 03:36:12;;;;;;;31.40;18.35;;;;;;;1.05;100.00;101254.25;5018281;28;20036;-75
2021/11/24 03:38:37;;;;;;;34.20;17.77;;;;;;;1.04;100.00;101247.97;5034446;28;20047;-76
2021/11/24 03:41:03;;;;;;;27.92;17.25;;;;;;;1.05;100.00;101249.63;5033518;28;20037;-75
2021/11/24 03:43:28;;;;;;;29.73;16.63;;;;;;;1.07;100.00;101253.00;5017817;28;20037;-75
2021/11/24 03:45:54;;;;;;;27.00;15.95;;;;;;;1.05;100.00;101251.53;5032500;28;20034;-76
2021/11/24 03:48:19;;;;;;;31.45;17.75;;;;;;;0.97;100.00;101252.59;5018771;28;20036;-75
2021/11/24 03:50:45;;;;;;;29.23;16.15;;;;;;;0.93;100.00;101245.88;5032885;28;20040;-76
2021/11/24 03:53:11;;;;;;;33.45;17.98;;;;;;;0.89;100.00;101229.06;5033843;28;20033;-76
2021/11/24 03:55:36;;;;;;;27.33;16.25;;;;;;;0.92;100.00;101232.41;5035065;28;20029;-76
2021/11/24 03:58:02;;;;;;;31.85;16.98;;;;;;;0.86;100.00;101225.88;5032588;28;20032;-75
2021/11/24 04:00:28;;;;;;;27.02;15.13;;;;;;;0.89;100.00;101234.53;5033328;28;20033;-76
2021/11/24 04:02:53;;;;;;;31.48;16.42;;;;;;;0.91;100.00;101226.09;5034733;28;20037;-76
2021/11/24 04:05:19;;;;;;;27.23;15.73;;;;;;;0.85;100.00;101226.94;5028835;28;20041;-75
2021/11/24 04:07:45;;;;;;;28.20;15.35;;;;;;;0.83;100.00;101226.31;5033093;28;20040;-76
2021/11/24 04:10:11;;;;;;;29.95;16.58;;;;;;;0.74;100.00;101219.38;5035521;28;20056;-76
2021/11/24 04:12:37;;;;;;;27.65;16.35;;;;;;;0.73;100.00;101223.19;5034195;28;20525;-76
2021/11/24 04:15:05;;;;;;;26.08;16.15;;;;;;;0.71;100.00;101220.66;5035673;28;20029;-75
2021/11/24 04:17:30;;;;;;;28.83;16.35;;;;;;;0.66;100.00;101217.69;5034014;28;20033;-75
2021/11/24 04:19:56;;;;;;;27.05;16.25;;;;;;;0.61;100.00;101212.88;5016743;28;20120;-75
2021/11/24 04:22:21;;;;;;;32.97;17.73;;;;;;;0.55;100.00;101212.88;5025446;28;20081;-75
2021/11/24 04:24:47;;;;;;;30.27;18.70;;;;;;;0.53;100.00;101213.09;5035354;28;20046;-75
2021/11/24 04:27:12;;;;;;;28.92;17.77;;;;;;;0.52;100.00;101214.13;5017389;28;20037;-75
2021/11/24 04:29:40;;;;;;;28.27;16.55;;;;;;;0.54;100.00;101213.94;5013788;28;20064;-75
2021/11/24 04:32:06;;;;;;;30.85;17.40;;;;;;;0.47;100.00;101216.66;5010659;28;20026;-75
2021/11/24 04:34:31;;;;;;;30.02;16.40;;;;;;;0.44;100.00;101208.88;5022888;28;20021;-75
2021/11/24 04:36:57;;;;;;;36.33;17.85;;;;;;;0.46;100.00;101212.25;5006744;28;20025;-75
2021/11/24 04:39:22;;;;;;;31.27;18.20;;;;;;;0.43;100.00;101213.50;5029974;28;20483;-75
2021/11/24 04:41:48;;;;;;;33.28;19.13;;;;;;;0.41;100.00;101220.22;5028699;28;20045;-75
2021/11/24 04:44:13;;;;;;;28.98;17.27;;;;;;;0.40;100.00;101218.56;5034444;28;20371;-75
2021/11/24 04:46:39;;;;;;;32.08;18.10;;;;;;;0.39;100.00;101216.84;4978541;28;20041;-75
2021/11/24 04:49:05;;;;;;;32.17;16.70;;;;;;;0.40;100.00;101219.41;5031009;28;20029;-75
2021/11/24 04:51:30;;;;;;;28.50;16.70;;;;;;;0.40;100.00;101216.66;5030535;28;20053;-76
2021/11/24 04:53:56;;;;;;;29.05;17.27;;;;;;;0.36;100.00;101206.34;5033351;28;20037;-75
2021/11/24 04:56:21;;;;;;;29.80;17.85;;;;;;;0.34;100.00;101208.47;5033421;28;20033;-75
2021/11/24 04:59:04;;;;;;;30.15;17.40;;;;;;;0.35;100.00;101202.78;5027355;28;20025;-75
2021/11/24 05:01:30;;;;;;;31.05;18.35;;;;;;;0.35;100.00;101210.16;5029983;28;20037;-75
2021/11/24 05:03:56;;;;;;;29.67;17.33;;;;;;;0.34;100.00;101208.47;5032165;28;20083;-75
2021/11/24 05:06:22;;;;;;;32.28;18.77;;;;;;;0.29;100.00;101213.72;5034843;28;20454;-75
2021/11/24 05:08:48;;;;;;;31.55;18.23;;;;;;;0.28;100.00;101220.22;5032999;28;20029;-75
2021/11/24 05:11:14;;;;;;;30.17;17.00;;;;;;;0.30;100.00;101212.66;5035258;28;20036;-75
2021/11/24 05:13:45;;;;;;;28.90;17.52;;;;;;;0.28;100.00;101214.75;5030203;28;20045;-75
2021/11/24 05:16:10;;;;;;;38.65;20.05;;;;;;;0.19;100.00;101204.03;5016442;28;20032;-75
2021/11/24 05:18:44;;;;;;;35.67;20.20;;;;;;;0.20;100.00;101202.16;5034642;28;20045;-75
2021/11/24 05:21:14;;;;;;;45.53;24.70;;;;;;;0.11;100.00;101206.97;5031702;28;20448;-75
2021/11/24 05:23:42;;;;;;;37.28;20.45;;;;;;;0.15;100.00;101216.44;5026246;28;20053;-76
2021/11/24 05:26:08;;;;;;;36.50;20.38;;;;;;;0.14;100.00;101212.03;5025397;28;20043;-75
2021/11/24 05:28:34;;;;;;;33.08;19.90;;;;;;;0.14;100.00;101209.28;5035128;28;20108;-75
2021/11/24 05:31:00;;;;;;;33.45;19.02;;;;;;;0.14;100.00;101212.03;5031074;28;20029;-75
2021/11/24 05:33:25;;;;;;;35.45;19.83;;;;;;;0.16;100.00;101212.63;5032300;28;20052;-75
2021/11/24 05:35:50;;;;;;;35.53;19.60;;;;;;;0.15;100.00;101205.50;5033818;28;20032;-75
2021/11/24 05:38:16;;;;;;;39.72;22.38;;;;;;;0.09;100.00;101200.88;5000018;28;20075;-75
2021/11/24 05:40:41;;;;;;;37.30;21.45;;;;;;;0.08;100.00;101210.09;5034812;28;20489;-75
2021/11/24 05:43:07;;;;;;;39.67;20.98;;;;;;;0.08;100.00;101215.56;5034712;28;20029;-75
2021/11/24 05:48:02;;;;;;;33.78;19.05;;;;;;;0.09;100.00;101211.81;5035497;28;20025;-75
2021/11/24 05:50:28;;;;;;;35.58;20.40;;;;;;;0.09;100.00;101210.97;5025773;28;20540;-75
2021/11/24 05:52:54;;;;;;;39.10;21.40;;;;;;;0.04;100.00;101217.03;5030265;28;20465;-75
2021/11/24 05:55:20;;;;;;;36.95;20.63;;;;;;;0.07;100.00;101211.16;4998288;28;20049;-75
2021/11/24 05:57:46;;;;;;;41.40;22.27;;;;;;;0.06;100.00;101206.75;5031139;28;20061;-76
2021/11/24 06:00:12;;;;;;;82.88;37.08;;;;;;;0.02;100.00;101215.56;5032863;28;20017;-75
2021/11/24 06:02:38;;;;;;;69.75;31.58;;;;;;;-0.01;100.00;101212.19;5031701;28;20034;-75
2021/11/24 06:05:04;;;;;;;68.22;34.60;;;;;;;-0.03;100.00;101214.31;5011250;28;20450;-75
2021/11/24 06:07:29;;;;;;;60.28;30.65;;;;;;;0.00;100.00;101223.97;5024653;28;20509;-75
2021/11/24 06:09:55;;;;;;;67.28;31.70;;;;;;;-0.03;100.00;101210.72;5031991;28;20036;-76
2021/11/24 06:12:21;;;;;;;59.25;30.00;;;;;;;0.00;100.00;101210.34;5033905;28;20417;-75
2021/11/24 06:14:46;;;;;;;64.00;29.95;;;;;;;0.01;100.00;101209.28;5031989;28;20040;-71
2021/11/24 06:17:12;;;;;;;61.85;29.30;;;;;;;-0.03;100.00;101211.59;5031399;28;20060;-71
2021/11/24 06:19:37;;;;;;;69.28;32.22;;;;;;;-0.02;100.00;101199.59;5033215;28;20032;-71
2021/11/24 06:22:03;;;;;;;65.30;34.85;;;;;;;-0.01;100.00;101209.47;5035176;28;20030;-71
2021/11/24 06:24:29;;;;;;;89.68;40.95;;;;;;;-0.01;100.00;101203.16;5026774;28;20406;-72
2021/11/24 06:26:54;;;;;;;96.30;41.70;;;;;;;-0.01;100.00;101200.44;5030099;28;20036;-71
2021/11/24 06:29:20;;;;;;;89.63;39.20;;;;;;;0.01;100.00;101198.34;5003870;28;20036;-71
2021/11/24 06:31:45;;;;;;;85.68;38.60;;;;;;;0.04;100.00;101202.56;5002519;28;20025;-72
2021/11/24 06:34:10;;;;;;;88.47;38.78;;;;;;;0.06;100.00;101190.38;5020225;28;20037;-71
2021/11/24 06:36:36;;;;;;;100.00;41.95;;;;;;;0.09;100.00;101197.31;5037146;28;20025;-71
2021/11/24 06:39:01;;;;;;;105.15;43.85;;;;;;;0.14;100.00;101190.19;4983856;28;20060;-71
2021/11/24 06:41:27;;;;;;;96.22;40.90;;;;;;;0.17;100.00;101194.38;5012187;28;20032;-71
2021/11/24 06:43:52;;;;;;;84.95;36.70;;;;;;;0.17;100.00;101189.75;5020377;28;20025;-71
2021/11/24 06:46:18;;;;;;;83.57;37.30;;;;;;;0.15;100.00;101189.13;5018216;28;20037;-72
2021/11/24 06:48:43;;;;;;;84.05;38.17;;;;;;;0.17;100.00;101184.28;5019224;28;20044;-71
2021/11/24 06:51:10;;;;;;;80.03;36.50;;;;;;;0.20;100.00;101189.34;5028309;28;20064;-71
2021/11/24 06:53:35;;;;;;;71.43;33.63;;;;;;;0.24;100.00;101183.44;5013281;28;20505;-71
2021/11/24 06:56:01;;;;;;;71.03;32.28;;;;;;;0.24;100.00;101181.56;5026456;28;20025;-71
2021/11/24 06:58:26;;;;;;;65.57;30.88;;;;;;;0.26;100.00;101184.09;5034269;28;20041;-71
2021/11/24 07:00:52;;;;;;;70.00;32.03;;;;;;;0.27;100.00;101180.28;5033504;28;20049;-71
2021/11/24 07:03:17;;;;;;;63.08;30.35;;;;;;;0.26;100.00;101176.72;5037509;28;20033;-71
2021/11/24 07:05:43;;;;;;;62.47;29.45;;;;;;;0.31;100.00;101167.91;5035060;28;20029;-71
2021/11/24 07:08:08;;;;;;;65.75;31.75;;;;;;;0.28;100.00;101165.56;5038013;28;20033;-72
2021/11/24 07:10:34;;;;;;;58.90;29.48;;;;;;;0.29;100.00;101167.28;5003238;28;20026;-71
2021/11/24 07:12:59;;;;;;;58.05;28.08;;;;;;;0.26;100.00;101160.34;4987627;28;20037;-71
2021/11/24 07:15:26;;;;;;;52.72;26.35;;;;;;;0.30;100.00;101166.22;5002709;28;20108;-71
2021/11/24 07:17:52;;;;;;;54.72;26.25;;;;;;;0.31;100.00;101167.91;5033544;28;20552;-71
2021/11/24 07:20:17;;;;;;;58.92;28.52;;;;;;;0.25;100.00;101166.00;5033661;28;20029;-71
2021/11/24 07:22:43;;;;;;;64.45;28.95;;;;;;;0.22;100.00;101170.84;5010868;28;20032;-72
2021/11/24 07:25:09;;;;;;;57.40;28.02;;;;;;;0.18;100.00;101169.56;5009098;28;20402;-72
2021/11/24 07:27:35;;;;;;;56.33;26.45;;;;;;;0.20;100.00;101175.69;5014755;28;20021;-76
2021/11/24 07:30:00;;;;;;;57.05;27.35;;;;;;;0.22;100.00;101161.78;5006309;28;20029;-76
2021/11/24 07:32:26;;;;;;;54.35;27.52;;;;;;;0.22;100.00;101165.38;5003261;28;20482;-75
2021/11/24 07:34:51;;;;;;;58.60;26.63;;;;;;;0.24;100.00;101172.53;5037144;28;20037;-75
2021/11/24 07:37:17;;;;;;;60.10;27.27;;;;;;;0.25;100.00;101166.00;5036626;28;20113;-75
2021/11/24 07:39:42;;;;;;;54.67;26.13;;;;;;;0.19;100.00;101157.59;5036248;28;20045;-75
2021/11/24 07:42:08;;;;;;;55.55;26.02;;;;;;;0.18;100.00;101160.53;5036225;28;20033;-75
2021/11/24 07:44:33;;;;;;;58.22;26.83;;;;;;;0.20;100.00;101163.91;5020352;28;20108;-75
2021/11/24 07:46:59;;;;;;;56.55;25.67;;;;;;;0.17;100.00;101158.88;5034488;28;20040;-74
2021/11/24 07:49:24;;;;;;;55.03;27.45;;;;;;;0.16;100.00;101160.72;5035428;28;20037;-75
2021/11/24 07:51:50;;;;;;;52.53;26.58;;;;;;;0.15;100.00;101164.53;5019113;28;20030;-75
2021/11/24 07:54:15;;;;;;;53.05;25.42;;;;;;;0.11;100.00;101157.81;5035053;28;20041;-75
2021/11/24 07:56:41;;;;;;;55.13;26.83;;;;;;;0.14;100.00;101159.25;5033828;28;20045;-75
2021/11/24 07:59:06;;;;;;;54.05;26.38;;;;;;;0.14;100.00;101154.66;5028599;28;20479;-75
2021/11/24 08:01:32;;;;;;;55.50;25.73;;;;;;;0.17;100.00;101159.72;5022711;28;20105;-75
2021/11/24 08:03:58;;;;;;;58.83;28.30;;;;;;;0.19;100.00;101157.59;5008180;28;20141;-75
2021/11/24 08:06:23;;;;;;;54.20;26.83;;;;;;;0.23;100.00;101160.75;4987235;28;20022;-75
2021/11/24 08:08:49;;;;;;;66.07;28.20;;;;;;;0.27;100.00;101159.28;5015182;28;20025;-75
2021/11/24 08:11:14;;;;;;;60.20;27.75;;;;;;;0.31;100.00;101155.09;5028240;28;20040;-75
2021/11/24 08:13:40;;;;;;;58.67;27.40;;;;;;;0.31;100.00;101160.56;5012128;28;20077;-75
2021/11/24 08:16:05;;;;;;;56.00;26.77;;;;;;;0.36;100.00;101158.03;5028285;28;20032;-74
2021/11/24 08:18:31;;;;;;;58.63;27.52;;;;;;;0.38;100.00;101157.81;5034644;28;20091;-75
2021/11/24 08:20:56;;;;;;;57.15;27.08;;;;;;;0.42;100.00;101159.06;5001855;28;20089;-75
2021/11/24 08:23:21;;;;;;;53.60;26.00;;;;;;;0.44;100.00;101160.53;5020774;28;20475;-75
2021/11/24 08:25:47;;;;;;;58.60;27.17;;;;;;;0.51;100.00;101155.06;5036786;28;20064;-75
2021/11/24 08:28:13;;;;;;;62.22;28.38;;;;;;;0.56;100.00;101151.72;5033514;28;20033;-75
2021/11/24 08:30:38;;;;;;;62.08;27.92;;;;;;;0.62;100.00;101159.88;5035108;28;20052;-75
2021/11/24 08:33:04;;;;;;;66.25;29.77;;;;;;;0.70;100.00;101157.97;4987375;28;20117;-75
2021/11/24 08:35:29;;;;;;;60.65;27.65;;;;;;;0.76;100.00;101151.66;5012113;28;20037;-74
2021/11/24 08:37:55;;;;;;;59.90;27.15;;;;;;;0.80;100.00;101148.28;5004568;28;20037;-75
2021/11/24 08:40:20;;;;;;;60.70;28.13;;;;;;;0.88;100.00;101152.69;5001806;28;20025;-75
2021/11/24 08:42:46;;;;;;;58.25;26.65;;;;;;;0.95;100.00;101148.03;5002778;28;20041;-75
2021/11/24 08:45:12;;;;;;;54.90;26.27;;;;;;;1.04;100.00;101143.16;5001038;28;20029;-75
2021/11/24 08:47:38;;;;;;;55.78;27.20;;;;;;;1.11;100.00;101144.84;5026373;28;20021;-75
2021/11/24 08:50:05;;;;;;;60.45;29.10;;;;;;;1.20;100.00;101139.09;5011836;28;20021;-75
2021/11/24 08:52:30;;;;;;;64.53;30.17;;;;;;;1.26;100.00;101136.34;5018141;28;20042;-75
2021/11/24 08:54:56;;;;;;;71.25;36.97;;;;;;;1.34;100.00;101130.63;4979156;28;20438;-74
2021/11/24 08:57:22;;;;;;;73.28;33.88;;;;;;;1.44;100.00;101124.66;5024176;28;20037;-75
2021/11/24 08:59:48;;;;;;;71.55;32.42;;;;;;;1.50;100.00;101122.94;5034895;28;20035;-75
2021/11/24 09:02:14;;;;;;;62.80;30.25;;;;;;;1.60;100.00;101134.28;5017285;28;20049;-75
2021/11/24 09:04:39;;;;;;;65.53;30.52;;;;;;;1.67;100.00;101129.63;5034713;28;20033;-75
2021/11/24 09:07:05;;;;;;;66.90;31.98;;;;;;;1.74;100.00;101124.91;5035048;28;20087;-75
2021/11/24 09:09:30;;;;;;;74.90;33.75;;;;;;;1.85;100.00;101123.38;5008078;28;20071;-75
2021/11/24 09:11:56;;;;;;;66.82;30.92;;;;;;;1.94;100.00;101127.50;5016938;28;20029;-75
2021/11/24 09:14:23;;;;;;;60.90;29.38;;;;;;;2.05;100.00;101114.16;5014722;28;20034;-75
2021/11/24 09:16:48;;;;;;;65.13;28.27;;;;;;;2.15;100.00;101114.50;4999531;28;20025;-76
2021/11/24 09:19:14;;;;;;;65.05;29.58;;;;;;;2.23;100.00;101114.25;4985467;28;20034;-73
2021/11/24 09:21:40;;;;;;;62.75;28.75;;;;;;;2.37;100.00;101109.47;5036731;28;20075;-73
2021/11/24 09:24:11;;;;;;;61.70;28.45;;;;;;;2.49;100.00;101104.91;5007178;28;20052;-73
2021/11/24 09:26:53;;;;;;;61.78;27.48;;;;;;;2.66;100.00;101107.91;5035727;28;20531;-73
2021/11/24 09:29:19;;;;;;;63.53;29.98;;;;;;;2.81;100.00;101104.78;5028819;28;20036;-73
2021/11/24 09:31:44;;;;;;;64.95;29.23;;;;;;;2.93;100.00;101107.63;5034403;28;20378;-73
2021/11/24 09:34:10;;;;;;;66.35;29.10;;;;;;;3.02;100.00;101106.25;5017550;28;20042;-73
2021/11/24 09:36:37;;;;;;;65.18;28.50;;;;;;;3.14;100.00;101115.38;4985008;28;20029;-73
2021/11/24 09:39:03;;;;;;;56.60;27.08;;;;;;;3.26;100.00;101108.06;5031744;28;20108;-73
2021/11/24 09:41:28;;;;;;;64.53;30.27;;;;;;;3.37;100.00;101109.16;4983306;28;20080;-73
2021/11/24 09:43:55;;;;;;;62.83;28.20;;;;;;;3.51;100.00;101104.31;5001880;28;20029;-74
2021/11/24 09:46:21;;;;;;;66.82;29.60;;;;;;;3.61;100.00;101096.38;5032235;28;20116;-74
2021/11/24 09:48:48;;;;;;;65.65;29.73;;;;;;;3.72;100.00;101098.31;4985106;28;20026;-74
2021/11/24 09:51:14;;;;;;;57.42;27.52;;;;;;;3.83;100.00;101101.34;5031693;28;20193;-73
2021/11/24 09:53:40;;;;;;;66.32;27.92;;;;;;;3.93;100.00;101098.88;5033686;28;20584;-73
2021/11/24 09:56:07;;;;;;;58.85;27.23;;;;;;;4.02;100.00;101094.69;5017904;28;20118;-73
2021/11/24 09:58:32;;;;;;;58.92;28.08;;;;;;;4.10;100.00;101091.59;5034372;28;20048;-73
2021/11/24 10:00:58;;;;;;;63.28;29.35;;;;;;;4.15;100.00;101091.72;5031384;28;20022;-74
2021/11/24 10:03:25;;;;;;;57.85;27.83;;;;;;;4.23;100.00;101094.13;5036492;28;20537;-74
2021/11/24 10:05:51;;;;;;;55.60;27.63;;;;;;;4.29;100.00;101088.72;5032871;28;20040;-74
2021/11/24 10:08:16;;;;;;;59.72;28.52;;;;;;;4.27;100.00;101085.41;5036997;28;20057;-74
2021/11/24 10:10:42;;;;;;;54.40;27.45;;;;;;;4.32;100.00;101078.13;5033410;28;20056;-74
2021/11/24 10:13:07;;;;;;;56.55;26.05;;;;;;;4.44;100.00;101083.63;5034233;28;20382;-74
2021/11/24 10:15:48;;;;;;;54.80;26.98;;;;;;;4.49;100.00;101078.22;5035304;28;20029;-73
2021/11/24 10:18:21;;;;;;;53.88;26.15;;;;;;;4.57;100.00;101071.50;5029118;28;20029;-74
2021/11/24 10:21:06;;;;;;;53.03;25.92;;;;;;;4.68;100.00;101077.03;5017946;28;20036;-73
2021/11/24 10:23:34;;;;;;;49.20;24.98;;;;;;;4.79;100.00;101067.06;5036108;28;20045;-73
2021/11/24 10:26:28;;;;;;;46.28;23.88;;;;;;;4.92;100.00;101064.03;5038469;28;20041;-74
2021/11/24 10:29:02;;;;;;;51.10;25.52;;;;;;;4.95;100.00;101065.47;5037005;28;20456;-74
2021/11/24 10:31:41;;;;;;;48.83;25.90;;;;;;;5.06;100.00;101056.34;5034080;28;20124;-73
2021/11/24 10:34:23;;;;;;;48.45;24.25;;;;;;;5.17;100.00;101057.38;5038690;28;20120;-73
2021/11/24 10:37:01;;;;;;;48.40;25.02;;;;;;;5.27;100.00;101051.25;5025766;28;20108;-73
2021/11/24 10:39:27;;;;;;;45.95;24.45;;;;;;;5.31;100.00;101042.25;5034547;28;20035;-73
2021/11/24 10:41:52;;;;;;;45.97;23.33;;;;;;;5.40;100.00;101042.69;5038604;28;20033;-74
2021/11/24 10:44:26;;;;;;;46.95;23.02;;;;;;;5.44;100.00;101040.28;5017185;28;20049;-73
2021/11/24 10:46:56;;;;;;;48.50;22.67;;;;;;;5.48;100.00;101038.69;5031601;28;20037;-74
2021/11/24 10:49:52;;;;;;;41.60;21.85;;;;;;;5.53;100.00;101034.13;5037809;28;20037;-74
2021/11/24 10:52:35;;;;;;;41.65;21.67;;;;;;;5.50;100.00;101026.34;5015454;28;20065;-73
2021/11/24 10:55:05;;;;;;;44.22;22.23;;;;;;;5.60;100.00;101029.28;5029942;28;20481;-74
2021/11/24 10:57:32;;;;;;;39.40;21.60;;;;;;;5.68;100.00;101019.75;5032437;28;20070;-73
2021/11/24 11:00:00;;;;;;;38.25;19.80;;;;;;;5.72;100.00;101023.69;5036299;28;20029;-73
2021/11/24 11:02:45;;;;;;;40.55;21.70;;;;;;;5.80;100.00;101012.28;5035887;28;20030;-74
2021/11/24 11:05:27;;;;;;;40.85;21.67;;;;;;;5.84;100.00;101007.09;5037645;28;20488;-74
2021/11/24 11:07:55;;;;;;;35.95;19.75;;;;;;;5.91;100.00;101001.41;5034371;28;20052;-73
2021/11/24 11:10:24;;;;;;;42.17;22.55;;;;;;;5.86;100.00;100996.66;5021611;28;20037;-74